Whipple, Ohio
Current Conditions -  °F | °C
As of 12:53 PM on Thursday 30 Oct 2014 (Local Time) from KPKB Reporting Station
Broken Clouds Broken Clouds  
Wind Chill: 49°   Ceiling: 4400
Heat Index: 49°   Visibility: 10mi
Dew Point: 36°   Wind: 3mph
Humidity: 61%   Direction: 320°NW
Pressure: 30.16"   Gusts: NA
Location:  39.52°N, 81.41°W
Report Text: KPKB 301653Z 32003KT 10SM SCT033 BKN044 09/02 A3016 RMK AO2 SLP214 T00940022
Loading
Personal Weather Stations






























Interactive Weather Map
Tropical Storm Tracking
New forecast layout! Learn more

10-Day Weather Forecast

Advertisements
Track Severe Weather on mobile